UUWW/VKO METAR and TAF weather

Enter ICAO airport designator
Station Type Date Time Source
UUWW METAR 2020/12/06 01:30 UTC NOAA

UUWW 060130Z 14002MPS CAVOK M10/M14 Q1039 R24/290050 NOSIG


Station Type Date Time Source
UUWW Decoded METAR 2020/12/06 01:30 UTC NOAA

Moscow / Vnukovo , Russia (UUWW) 55-39N 037-16E
Dec 05, 2020 - 08:30 PM EST / 2020.12.06 0130 UTC
Wind: from the SE (140 degrees) at 4 MPH (4 KT):0
Visibility: greater than 7 mile(s):0
Temperature: 14 F (-10 C)
Dew Point: 6 F (-14 C)
Relative Humidity: 72%
Pressure (altimeter): 30.68 in. Hg (1039 hPa)
ob: UUWW 060130Z 14002MPS CAVOK M10/M14 Q1039 R24/290050 NOSIG
cycle: 1

Station Type Date Time Source
UUWW TAF 2020/12/05 21:21 UTC NOAA

TAF UUWW 051952Z 0521/0621 15003G08MPS 9999 SCT030 TXM06/0611Z TNM10/0604Z

Example: see airport list